createdAt,value
2023-01-13T00:00:07.021Z,99591.72
2023-01-13T00:03:13.121Z,99592.38
2023-01-13T00:06:21.587Z,99592.00
2023-01-13T00:09:23.160Z,99583.84
2023-01-13T00:12:24.701Z,99564.88
2023-01-13T00:15:26.264Z,99571.84
2023-01-13T00:18:28.335Z,99549.94
2023-01-13T00:21:29.838Z,99553.66
2023-01-13T00:24:31.460Z,99552.25
2023-01-13T00:27:33.586Z,99548.94
2023-01-13T00:30:38.484Z,99553.97
2023-01-13T00:33:40.502Z,99552.53
2023-01-13T00:36:42.031Z,99558.16
2023-01-13T00:39:43.656Z,99555.91
2023-01-13T00:43:03.729Z,99559.53
2023-01-13T00:46:07.807Z,99553.22
2023-01-13T00:49:09.360Z,99543.09
2023-01-13T00:52:12.090Z,99531.25
2023-01-13T00:55:13.645Z,99519.81
2023-01-13T00:58:15.443Z,99523.44
2023-01-13T01:01:19.635Z,99523.09
2023-01-13T01:04:21.249Z,99531.41
2023-01-13T01:07:22.775Z,99527.47
2023-01-13T01:10:24.341Z,99528.25
2023-01-13T01:13:25.867Z,99533.09
2023-01-13T01:16:30.384Z,99528.53
2023-01-13T01:19:32.037Z,99533.28
2023-01-13T01:22:33.638Z,99524.38
2023-01-13T01:25:35.132Z,99531.16
2023-01-13T01:28:36.760Z,99528.13
2023-01-13T01:31:38.367Z,99518.50
2023-01-13T01:34:39.932Z,99533.22
2023-01-13T01:37:41.444Z,99518.38
2023-01-13T01:40:42.967Z,99521.44
2023-01-13T01:44:08.976Z,99527.31
2023-01-13T01:47:14.398Z,99524.06
2023-01-13T01:50:17.441Z,99517.25
2023-01-13T01:53:24.135Z,99518.16
2023-01-13T01:56:25.760Z,99514.28
2023-01-13T01:59:32.516Z,99511.31
2023-01-13T02:02:34.330Z,99518.16
2023-01-13T02:05:36.473Z,99504.59
2023-01-13T02:08:40.283Z,99503.19
2023-01-13T02:12:00.358Z,99502.69
2023-01-13T02:15:09.073Z,99493.94
2023-01-13T02:18:32.464Z,99492.34
2023-01-13T02:21:51.106Z,99493.34
2023-01-13T02:25:39.359Z,99502.63
2023-01-13T02:29:25.771Z,99492.22
2023-01-13T02:32:47.195Z,99487.44
2023-01-13T02:36:01.421Z,99493.13
2023-01-13T02:39:14.030Z,99485.13
2023-01-13T02:42:44.302Z,99470.06
2023-01-13T02:45:57.478Z,99472.69
2023-01-13T02:49:04.889Z,99480.59
2023-01-13T02:52:12.299Z,99482.75
2023-01-13T02:55:18.701Z,99477.00
2023-01-13T02:58:25.101Z,99478.28
2023-01-13T03:01:27.014Z,99483.56
2023-01-13T03:04:46.670Z,99479.59
2023-01-13T03:08:09.172Z,99482.03
2023-01-13T03:11:14.328Z,99463.47
2023-01-13T03:14:30.367Z,99456.28
2023-01-13T03:17:43.909Z,99461.28
2023-01-13T03:21:03.059Z,99458.84
2023-01-13T03:24:16.984Z,99460.38
2023-01-13T03:27:25.561Z,99467.81
2023-01-13T03:30:38.811Z,99464.69
2023-01-13T03:33:51.387Z,99439.56
2023-01-13T03:36:54.988Z,99450.47
2023-01-13T03:40:03.834Z,99460.03
2023-01-13T03:43:30.387Z,99433.94
2023-01-13T03:46:42.317Z,99421.63
2023-01-13T03:50:10.010Z,99425.47
2023-01-13T03:53:18.640Z,99436.75
2023-01-13T03:56:27.317Z,99426.16
2023-01-13T03:59:37.942Z,99418.78
2023-01-13T04:02:52.203Z,99420.28
2023-01-13T04:05:59.848Z,99417.41
2023-01-13T04:09:33.299Z,99419.44
2023-01-13T04:13:01.101Z,99414.22
2023-01-13T04:16:05.674Z,99420.78
2023-01-13T04:19:07.165Z,99425.25
2023-01-13T04:22:08.645Z,99416.00
2023-01-13T04:25:11.451Z,99428.38
2023-01-13T04:28:13.868Z,99423.91
2023-01-13T04:31:15.375Z,99428.25
2023-01-13T04:34:16.866Z,99427.09
2023-01-13T04:37:18.517Z,99435.00
2023-01-13T04:40:19.941Z,99434.13
2023-01-13T04:43:21.399Z,99434.44
2023-01-13T04:46:22.904Z,99436.03
2023-01-13T04:49:24.435Z,99425.69
2023-01-13T04:52:25.931Z,99419.66
2023-01-13T04:55:27.957Z,99426.34
2023-01-13T04:58:29.434Z,99413.66
2023-01-13T05:01:31.075Z,99407.31
2023-01-13T05:04:32.553Z,99407.56
2023-01-13T05:07:34.009Z,99393.50
2023-01-13T05:10:35.461Z,99397.81
2023-01-13T05:13:55.605Z,99388.28
2023-01-13T05:17:06.170Z,99370.50
2023-01-13T05:20:08.755Z,99369.81
2023-01-13T05:23:28.911Z,99371.56
2023-01-13T05:26:30.303Z,99378.63
2023-01-13T05:29:31.684Z,99360.22
2023-01-13T05:32:33.256Z,99376.91
2023-01-13T05:35:34.702Z,99377.72
2023-01-13T05:38:36.150Z,99371.34
2023-01-13T05:41:56.310Z,99382.91
2023-01-13T05:44:57.751Z,99387.22
2023-01-13T05:47:59.168Z,99379.09
2023-01-13T05:51:01.800Z,99381.38
2023-01-13T05:54:03.552Z,99374.91
2023-01-13T05:57:04.960Z,99378.31
2023-01-13T06:00:07.129Z,99380.06
2023-01-13T06:03:16.099Z,99383.13
2023-01-13T06:06:17.673Z,99379.63
2023-01-13T06:09:20.966Z,99386.81
2023-01-13T06:12:22.395Z,99375.59
2023-01-13T06:15:24.463Z,99383.00
2023-01-13T06:18:26.447Z,99377.69
2023-01-13T06:21:27.842Z,99393.56
2023-01-13T06:24:29.346Z,99385.06
2023-01-13T06:27:31.058Z,99387.88
2023-01-13T06:30:40.017Z,99380.53
2023-01-13T06:33:49.303Z,99380.91
2023-01-13T06:36:53.722Z,99390.63
2023-01-13T06:39:58.624Z,99362.59
2023-01-13T06:43:16.659Z,99365.78
2023-01-13T06:46:18.743Z,99371.00
2023-01-13T06:49:21.732Z,99375.03
2023-01-13T06:52:23.484Z,99382.97
2023-01-13T06:55:25.292Z,99398.78
2023-01-13T06:58:26.821Z,99400.56
2023-01-13T07:01:28.356Z,99396.41
2023-01-13T07:04:29.860Z,99399.91
2023-01-13T07:07:32.615Z,99396.50
2023-01-13T07:10:34.865Z,99408.59
2023-01-13T07:13:55.071Z,99393.44
2023-01-13T07:16:56.555Z,99383.53
2023-01-13T07:19:58.004Z,99405.69
2023-01-13T07:22:59.415Z,99406.75
2023-01-13T07:26:01.170Z,99421.59
2023-01-13T07:29:02.645Z,99426.22
2023-01-13T07:32:04.340Z,99448.47
2023-01-13T07:35:06.308Z,99440.75
2023-01-13T07:38:08.364Z,99420.69
2023-01-13T07:41:31.655Z,99418.53
2023-01-13T07:44:33.447Z,99415.44
2023-01-13T07:47:34.923Z,99442.19
2023-01-13T07:50:36.407Z,99446.66
2023-01-13T07:53:38.789Z,99449.81
2023-01-13T07:56:40.093Z,99427.25
2023-01-13T07:59:41.713Z,99432.63
2023-01-13T08:02:43.251Z,99443.78
2023-01-13T08:05:44.754Z,99449.19
2023-01-13T08:08:46.322Z,99459.72
2023-01-13T08:12:07.727Z,99473.84
2023-01-13T08:15:10.127Z,99495.53
2023-01-13T08:18:11.858Z,99498.47
2023-01-13T08:21:14.595Z,99510.28
2023-01-13T08:24:16.024Z,99527.69
2023-01-13T08:27:17.550Z,99532.22
2023-01-13T08:30:19.257Z,99531.84
2023-01-13T08:33:21.000Z,99537.16
2023-01-13T08:36:22.541Z,99552.28
2023-01-13T08:39:25.097Z,99568.63
2023-01-13T08:42:27.713Z,99556.06
2023-01-13T08:45:29.292Z,99574.22
2023-01-13T08:48:31.635Z,99577.47
2023-01-13T08:51:33.803Z,99565.75
2023-01-13T08:54:38.553Z,99567.38
2023-01-13T08:57:40.185Z,99581.88
2023-01-13T09:00:42.205Z,99577.06
2023-01-13T09:03:43.930Z,99584.72
2023-01-13T09:06:46.204Z,99584.00
2023-01-13T09:09:47.924Z,99566.78
2023-01-13T09:13:08.133Z,99567.59
2023-01-13T09:16:09.586Z,99559.88
2023-01-13T09:19:11.045Z,99558.75
2023-01-13T09:22:18.307Z,99570.47
2023-01-13T09:25:19.817Z,99561.97
2023-01-13T09:28:21.214Z,99566.97
2023-01-13T09:31:22.620Z,99571.16
2023-01-13T09:34:43.173Z,99577.97
2023-01-13T09:37:44.629Z,99569.22
2023-01-13T09:40:48.895Z,99564.53
2023-01-13T09:43:56.723Z,99558.97
2023-01-13T09:47:04.032Z,99565.34
2023-01-13T09:50:22.227Z,99562.22
2023-01-13T09:53:34.140Z,99565.56
2023-01-13T09:56:35.882Z,99569.22
2023-01-13T09:59:38.192Z,99586.84
2023-01-13T10:03:08.267Z,99581.88
2023-01-13T10:06:27.895Z,99594.03
2023-01-13T10:09:51.384Z,99609.78
2023-01-13T10:13:11.517Z,99609.06
2023-01-13T10:16:46.557Z,99620.72
2023-01-13T10:19:54.343Z,99644.97
2023-01-13T10:23:14.293Z,99665.63
2023-01-13T10:26:26.840Z,99690.13
2023-01-13T10:29:30.111Z,99702.00
2023-01-13T10:32:31.630Z,99700.09
2023-01-13T10:35:56.661Z,99707.63
2023-01-13T10:39:09.071Z,99700.63
2023-01-13T10:42:16.860Z,99714.38
2023-01-13T10:45:25.139Z,99724.53
2023-01-13T10:48:57.072Z,99710.66
2023-01-13T10:51:58.939Z,99698.28
2023-01-13T10:55:01.223Z,99722.47
2023-01-13T10:58:20.947Z,99708.19
2023-01-13T11:01:27.274Z,99726.31
2023-01-13T11:05:03.322Z,99723.25
2023-01-13T11:08:05.107Z,99730.69
2023-01-13T11:11:26.160Z,99732.19
2023-01-13T11:14:42.153Z,99734.28
2023-01-13T11:17:53.557Z,99744.72
2023-01-13T11:20:56.628Z,99753.13
2023-01-13T11:24:10.705Z,99756.00
2023-01-13T11:27:39.843Z,99770.03
2023-01-13T11:30:54.189Z,99752.44
2023-01-13T11:34:23.657Z,99763.13
2023-01-13T11:37:38.028Z,99763.78
2023-01-13T11:40:46.895Z,99763.97
2023-01-13T11:43:59.133Z,99769.91
2023-01-13T11:47:01.271Z,99763.13
2023-01-13T11:50:04.061Z,99772.94
2023-01-13T11:53:29.055Z,99781.25
2023-01-13T11:56:52.629Z,99784.81
2023-01-13T12:00:18.153Z,99783.63
2023-01-13T12:03:44.487Z,99776.31
2023-01-13T12:06:49.339Z,99769.81
2023-01-13T12:09:50.665Z,99772.63
2023-01-13T12:13:20.727Z,99762.47
2023-01-13T12:16:31.727Z,99761.03
2023-01-13T12:19:33.292Z,99761.25
2023-01-13T12:22:36.989Z,99763.53
2023-01-13T12:25:46.387Z,99745.81
2023-01-13T12:29:00.636Z,99742.13
2023-01-13T12:32:05.049Z,99740.19
2023-01-13T12:35:25.857Z,99732.06
2023-01-13T12:38:34.481Z,99730.94
2023-01-13T12:42:10.425Z,99759.44
2023-01-13T12:45:11.795Z,99753.44
2023-01-13T12:48:52.874Z,99742.31
2023-01-13T12:51:54.552Z,99754.03
2023-01-13T12:54:55.907Z,99747.84
2023-01-13T12:58:06.068Z,99744.72
2023-01-13T13:01:13.365Z,99744.94
2023-01-13T13:04:20.520Z,99744.09
2023-01-13T13:07:30.730Z,99755.06
2023-01-13T13:10:37.458Z,99751.03
2023-01-13T13:13:47.303Z,99737.44
2023-01-13T13:16:51.738Z,99723.59
2023-01-13T13:19:53.652Z,99726.75
2023-01-13T13:22:55.095Z,99727.28
2023-01-13T13:26:33.739Z,99728.34
2023-01-13T13:29:47.783Z,99732.41
2023-01-13T13:33:39.235Z,99751.50
2023-01-13T13:37:03.621Z,99764.13
2023-01-13T13:40:28.960Z,99773.13
2023-01-13T13:43:59.330Z,99778.31
2023-01-13T13:47:03.551Z,99778.34
2023-01-13T13:50:14.350Z,99768.19
2023-01-13T13:53:19.564Z,99787.69
2023-01-13T13:56:28.077Z,99796.97
2023-01-13T13:59:30.798Z,99793.47
2023-01-13T14:02:36.917Z,99803.66
2023-01-13T14:05:38.422Z,99808.56
2023-01-13T14:08:46.596Z,99798.75
2023-01-13T14:12:15.620Z,99813.00
2023-01-13T14:15:33.461Z,99807.78
2023-01-13T14:18:48.092Z,99814.38
2023-01-13T14:21:49.540Z,99820.09
2023-01-13T14:24:55.699Z,99811.78
2023-01-13T14:28:00.140Z,99831.16
2023-01-13T14:31:02.220Z,99816.53
2023-01-13T14:34:28.785Z,99823.59
2023-01-13T14:37:41.603Z,99829.28
2023-01-13T14:40:45.758Z,99825.72
2023-01-13T14:43:48.950Z,99831.34
2023-01-13T14:46:53.183Z,99840.75
2023-01-13T14:50:02.146Z,99833.28
2023-01-13T14:53:05.086Z,99844.72
2023-01-13T14:56:39.994Z,99850.19
2023-01-13T14:59:48.598Z,99838.91
2023-01-13T15:02:53.692Z,99844.28
2023-01-13T15:05:57.744Z,99841.66
2023-01-13T15:08:59.164Z,99855.34
2023-01-13T15:12:15.680Z,99845.34
2023-01-13T15:15:39.152Z,99854.75
2023-01-13T15:18:41.285Z,99848.75
2023-01-13T15:21:42.708Z,99850.38
2023-01-13T15:24:44.218Z,99859.22
2023-01-13T15:27:50.540Z,99864.69
2023-01-13T15:30:55.537Z,99863.31
2023-01-13T15:33:58.663Z,99864.19
2023-01-13T15:37:00.086Z,99866.19
2023-01-13T15:40:01.579Z,99869.75
2023-01-13T15:43:21.797Z,99882.34
2023-01-13T15:46:38.487Z,99890.25
2023-01-13T15:49:46.163Z,99888.91
2023-01-13T15:52:47.590Z,99887.66
2023-01-13T15:55:55.293Z,99889.81
2023-01-13T15:58:57.164Z,99889.25
2023-01-13T16:01:58.551Z,99899.81
2023-01-13T16:05:00.045Z,99922.06
2023-01-13T16:08:01.518Z,99924.53
2023-01-13T16:11:03.402Z,99933.47
2023-01-13T16:14:04.827Z,99945.44
2023-01-13T16:17:21.857Z,99949.44
2023-01-13T16:20:23.683Z,99977.91
2023-01-13T16:23:25.137Z,99996.25
2023-01-13T16:26:32.584Z,100039.28
2023-01-13T16:29:34.012Z,100054.25
2023-01-13T16:32:35.391Z,100068.63
2023-01-13T16:35:36.829Z,100077.34
2023-01-13T16:38:58.190Z,100102.28
2023-01-13T16:41:59.569Z,100098.56
2023-01-13T16:45:08.396Z,100107.38
2023-01-13T16:48:19.473Z,100118.84
2023-01-13T16:51:22.373Z,100120.41
2023-01-13T16:54:23.757Z,100109.25
2023-01-13T16:57:25.159Z,100105.81
2023-01-13T17:00:26.836Z,100100.16
2023-01-13T17:03:29.822Z,100084.53
2023-01-13T17:06:39.319Z,100095.09
2023-01-13T17:09:40.781Z,100096.38
2023-01-13T17:12:42.214Z,100089.53
2023-01-13T17:15:45.051Z,100101.22
2023-01-13T17:18:48.186Z,100101.69
2023-01-13T17:21:51.055Z,100106.47
2023-01-13T17:24:52.511Z,100106.66
2023-01-13T17:27:53.928Z,100108.81
2023-01-13T17:30:55.495Z,100115.63
2023-01-13T17:33:57.095Z,100117.44
2023-01-13T17:36:58.589Z,100127.09
2023-01-13T17:40:00.743Z,100132.66
2023-01-13T17:43:02.216Z,100143.78
2023-01-13T17:46:08.696Z,100144.75
2023-01-13T17:49:15.323Z,100150.47
2023-01-13T17:52:16.775Z,100159.47
2023-01-13T17:55:18.212Z,100165.13
2023-01-13T17:58:21.446Z,100175.16
2023-01-13T18:01:22.950Z,100172.94
2023-01-13T18:04:28.893Z,100186.63
2023-01-13T18:07:30.354Z,100187.59
2023-01-13T18:10:33.010Z,100187.84
2023-01-13T18:13:35.188Z,100194.38
2023-01-13T18:16:39.793Z,100205.41
2023-01-13T18:19:59.994Z,100214.94
2023-01-13T18:23:20.267Z,100211.94
2023-01-13T18:26:40.012Z,100210.28
2023-01-13T18:29:42.459Z,100216.56
2023-01-13T18:32:43.906Z,100219.19
2023-01-13T18:35:45.298Z,100220.69
2023-01-13T18:38:48.360Z,100227.34
2023-01-13T18:42:08.271Z,100225.78
2023-01-13T18:45:10.689Z,100235.19
2023-01-13T18:48:12.231Z,100240.97
2023-01-13T18:51:13.646Z,100245.00
2023-01-13T18:54:15.185Z,100239.81
2023-01-13T18:57:16.991Z,100233.88
2023-01-13T19:00:20.377Z,100236.69
2023-01-13T19:03:29.929Z,100242.50
2023-01-13T19:06:33.787Z,100245.94
2023-01-13T19:09:35.297Z,100243.34
2023-01-13T19:12:36.825Z,100254.59
2023-01-13T19:15:38.283Z,100257.09
2023-01-13T19:18:41.032Z,100253.06
2023-01-13T19:21:42.440Z,100257.56
2023-01-13T19:24:43.832Z,100264.06
2023-01-13T19:27:45.345Z,100258.38
2023-01-13T19:30:46.862Z,100258.28
2023-01-13T19:33:48.316Z,100258.88
2023-01-13T19:36:51.802Z,100260.19
2023-01-13T19:39:53.256Z,100255.56
2023-01-13T19:43:13.202Z,100259.22
2023-01-13T19:46:14.759Z,100257.56
2023-01-13T19:49:16.261Z,100261.47
2023-01-13T19:52:17.704Z,100269.66
2023-01-13T19:55:19.738Z,100272.72
2023-01-13T19:58:23.978Z,100276.88
2023-01-13T20:01:31.643Z,100279.09
2023-01-13T20:04:39.028Z,100275.56
2023-01-13T20:07:40.416Z,100275.66
2023-01-13T20:10:45.033Z,100281.72
2023-01-13T20:13:46.499Z,100277.56
2023-01-13T20:16:47.976Z,100279.38
2023-01-13T20:19:49.409Z,100284.69
2023-01-13T20:22:51.046Z,100288.38
2023-01-13T20:25:52.517Z,100283.25
2023-01-13T20:28:54.014Z,100290.97
2023-01-13T20:31:55.736Z,100298.53
2023-01-13T20:34:57.151Z,100294.28
2023-01-13T20:37:58.562Z,100292.25
2023-01-13T20:41:01.566Z,100303.16
2023-01-13T20:44:02.961Z,100306.84
2023-01-13T20:47:05.032Z,100306.25
2023-01-13T20:50:07.124Z,100309.34
2023-01-13T20:53:08.841Z,100316.56
2023-01-13T20:56:10.236Z,100323.44
2023-01-13T20:59:11.636Z,100328.91
2023-01-13T21:02:15.127Z,100325.22
2023-01-13T21:05:16.649Z,100317.03
2023-01-13T21:08:18.093Z,100309.72
2023-01-13T21:11:39.817Z,100316.56
2023-01-13T21:14:59.708Z,100307.44
2023-01-13T21:18:19.548Z,100308.84
2023-01-13T21:21:21.049Z,100317.50
2023-01-13T21:24:23.606Z,100322.97
2023-01-13T21:27:25.667Z,100312.06
2023-01-13T21:30:27.095Z,100318.94
2023-01-13T21:33:29.811Z,100318.81
2023-01-13T21:36:31.473Z,100314.56
2023-01-13T21:39:32.889Z,100318.25
2023-01-13T21:42:53.024Z,100315.28
2023-01-13T21:46:12.833Z,100322.59
2023-01-13T21:49:14.356Z,100323.94
2023-01-13T21:52:16.303Z,100322.00
2023-01-13T21:55:29.194Z,100327.34
2023-01-13T21:58:30.715Z,100328.91
2023-01-13T22:01:32.245Z,100324.53
2023-01-13T22:04:33.799Z,100331.97
2023-01-13T22:07:36.229Z,100333.88
2023-01-13T22:10:56.831Z,100334.81
2023-01-13T22:14:09.606Z,100341.81
2023-01-13T22:17:14.292Z,100336.13
2023-01-13T22:20:16.780Z,100349.25
2023-01-13T22:23:20.072Z,100345.38
2023-01-13T22:26:21.480Z,100354.63
2023-01-13T22:29:22.974Z,100360.03
2023-01-13T22:32:24.532Z,100372.09
2023-01-13T22:35:25.937Z,100365.34
2023-01-13T22:38:27.366Z,100367.91
2023-01-13T22:41:28.899Z,100360.53
2023-01-13T22:44:30.413Z,100375.53
2023-01-13T22:47:33.007Z,100371.75
2023-01-13T22:50:34.421Z,100366.53
2023-01-13T22:53:36.481Z,100359.78
2023-01-13T22:56:38.282Z,100361.38
2023-01-13T22:59:39.697Z,100362.19
2023-01-13T23:02:41.213Z,100346.81
2023-01-13T23:05:42.890Z,100352.94
2023-01-13T23:08:45.117Z,100359.69
2023-01-13T23:11:47.844Z,100364.09
2023-01-13T23:14:49.358Z,100354.47
2023-01-13T23:17:51.465Z,100351.59
2023-01-13T23:20:52.850Z,100344.41
2023-01-13T23:23:54.890Z,100343.56
2023-01-13T23:26:56.317Z,100334.38
2023-01-13T23:29:57.729Z,100340.16
2023-01-13T23:32:59.217Z,100349.53
2023-01-13T23:36:03.203Z,100355.69
2023-01-13T23:39:04.606Z,100345.59
2023-01-13T23:42:06.106Z,100346.91
2023-01-13T23:45:08.324Z,100348.00
2023-01-13T23:48:09.846Z,100339.28
2023-01-13T23:51:13.020Z,100337.16
2023-01-13T23:54:14.434Z,100341.78
2023-01-13T23:57:15.811Z,100345.47
